ボードー の空港の天気 - METARとTAF

Bodo Vi ( ENBO / BOO ) - ノルウェー ヌールラン県ボードー
飛行場実況気象(Metar)
観測時間10/16 08:20 CEST (10/16 06:20 UTC)
風向・風速南西 9m/s
視程10km以上
天気現象
少しの雲 雲底高度 460m
全天の4割程度の雲 雲底高度 760m
気温9℃
湿度81%
気圧1010hPa
METARENBO 160620Z 22018KT 9999 FEW015TCU SCT025 09/06 Q1010 NOSIG
過去の天気等 Google飛行場航空写真 Wunderground天気予報

過去48時間のMETAR

飛行場予報(TAF)
発表時間: -
16日18時 CEST ~ 16日20時 CEST に徐々に
風向・風速東 6m/s
TAF ENBO 1606/1706 24020KT 9999 -SHRA FEW015TCU SCT030
BECMG 1616/1618 10012KT